createdAt,value
2018-01-02T00:00:25.562Z,962.89
2018-01-02T00:01:25.470Z,962.91
2018-01-02T00:02:25.396Z,962.94
2018-01-02T00:03:25.307Z,963.00
2018-01-02T00:04:25.232Z,962.98
2018-01-02T00:05:25.163Z,962.89
2018-01-02T00:06:25.069Z,962.94
2018-01-02T00:07:24.978Z,963.06
2018-01-02T00:08:24.904Z,963.00
2018-01-02T00:09:24.818Z,963.04
2018-01-02T00:10:24.744Z,962.98
2018-01-02T00:11:24.658Z,963.08
2018-01-02T00:12:24.584Z,963.10
2018-01-02T00:13:24.481Z,963.08
2018-01-02T00:14:24.413Z,963.09
2018-01-02T00:15:24.330Z,963.10
2018-01-02T00:16:24.242Z,963.15
2018-01-02T00:17:24.169Z,963.22
2018-01-02T00:18:24.089Z,963.31
2018-01-02T00:19:24.000Z,963.18
2018-01-02T00:20:23.930Z,963.26
2018-01-02T00:21:23.840Z,963.18
2018-01-02T00:22:23.769Z,963.23
2018-01-02T00:23:23.674Z,963.36
2018-01-02T00:24:23.604Z,963.32
2018-01-02T00:25:23.510Z,963.29
2018-01-02T00:26:23.452Z,963.33
2018-01-02T00:27:23.366Z,963.35
2018-01-02T00:28:23.283Z,963.42
2018-01-02T00:29:23.180Z,963.40
2018-01-02T00:30:23.110Z,963.41
2018-01-02T00:31:23.022Z,963.45
2018-01-02T00:32:22.940Z,963.40
2018-01-02T00:33:22.850Z,963.56
2018-01-02T00:34:22.793Z,963.52
2018-01-02T00:35:22.695Z,963.55
2018-01-02T00:36:22.609Z,963.55
2018-01-02T00:37:22.526Z,963.62
2018-01-02T00:38:22.454Z,963.68
2018-01-02T00:39:22.359Z,963.69
2018-01-02T00:40:22.282Z,963.72
2018-01-02T00:41:22.194Z,963.77
2018-01-02T00:42:22.127Z,963.70
2018-01-02T00:43:22.032Z,963.69
2018-01-02T00:44:21.961Z,963.71
2018-01-02T00:45:21.876Z,963.75
2018-01-02T00:46:21.794Z,963.79
2018-01-02T00:47:21.719Z,963.78
2018-01-02T00:48:21.644Z,963.77
2018-01-02T00:49:21.542Z,963.80
2018-01-02T00:50:21.470Z,963.81
2018-01-02T00:51:21.394Z,963.81
2018-01-02T00:52:21.313Z,963.86
2018-01-02T00:53:21.215Z,963.89
2018-01-02T00:54:21.143Z,964.02
2018-01-02T00:55:21.065Z,963.91
2018-01-02T00:56:20.979Z,963.96
2018-01-02T00:57:20.887Z,964.02
2018-01-02T00:58:20.823Z,964.00
2018-01-02T00:59:20.726Z,964.14
2018-01-02T01:00:20.653Z,964.09
2018-01-02T01:01:20.560Z,964.16
2018-01-02T01:02:20.508Z,964.07
2018-01-02T01:03:20.397Z,964.10
2018-01-02T01:04:20.324Z,964.23
2018-01-02T01:05:20.239Z,964.16
2018-01-02T01:06:20.161Z,964.16
2018-01-02T01:07:20.071Z,964.26
2018-01-02T01:08:20.001Z,964.27
2018-01-02T01:09:19.920Z,964.29
2018-01-02T01:10:19.829Z,964.21
2018-01-02T01:11:19.752Z,964.19
2018-01-02T01:12:19.675Z,964.32
2018-01-02T01:13:19.580Z,964.34
2018-01-02T01:14:19.506Z,964.39
2018-01-02T01:15:19.416Z,964.36
2018-01-02T01:16:19.346Z,964.37
2018-01-02T01:17:19.255Z,964.51
2018-01-02T01:18:19.178Z,964.53
2018-01-02T01:19:19.086Z,964.57
2018-01-02T01:20:19.015Z,964.59
2018-01-02T01:21:18.923Z,964.59
2018-01-02T01:22:18.854Z,964.57
2018-01-02T01:23:18.759Z,964.67
2018-01-02T01:24:18.694Z,964.68
2018-01-02T01:25:18.597Z,964.61
2018-01-02T01:26:18.527Z,964.70
2018-01-02T01:27:18.435Z,964.56
2018-01-02T01:28:18.359Z,964.64
2018-01-02T01:29:18.282Z,964.66
2018-01-02T01:30:18.194Z,964.68
2018-01-02T01:31:18.110Z,964.71
2018-01-02T01:32:18.033Z,964.71
2018-01-02T01:33:17.949Z,964.81
2018-01-02T01:34:17.871Z,964.79
2018-01-02T01:35:17.781Z,964.79
2018-01-02T01:36:17.709Z,964.83
2018-01-02T01:37:17.612Z,964.85
2018-01-02T01:38:17.547Z,964.97
2018-01-02T01:39:17.471Z,965.02
2018-01-02T01:40:17.382Z,965.04
2018-01-02T01:41:17.287Z,965.12
2018-01-02T01:42:17.212Z,965.21
2018-01-02T01:43:17.122Z,965.33
2018-01-02T01:44:17.051Z,965.18
2018-01-02T01:45:16.962Z,965.28
2018-01-02T01:46:16.886Z,965.27
2018-01-02T01:47:16.803Z,965.31
2018-01-02T01:48:16.719Z,965.35
2018-01-02T01:49:16.643Z,965.30
2018-01-02T01:50:16.557Z,965.34
2018-01-02T01:51:16.467Z,965.26
2018-01-02T01:52:16.390Z,965.25
2018-01-02T01:53:16.299Z,965.35
2018-01-02T01:54:16.233Z,965.30
2018-01-02T01:55:16.142Z,965.20
2018-01-02T01:56:16.064Z,965.29
2018-01-02T01:57:15.984Z,965.32
2018-01-02T01:58:15.905Z,965.33
2018-01-02T01:59:15.808Z,965.40
2018-01-02T02:00:15.736Z,965.42
2018-01-02T02:01:15.645Z,965.41
2018-01-02T02:02:15.578Z,965.50
2018-01-02T02:03:15.480Z,965.45
2018-01-02T02:04:15.410Z,965.48
2018-01-02T02:05:15.314Z,965.58
2018-01-02T02:06:15.244Z,965.67
2018-01-02T02:07:15.152Z,965.65
2018-01-02T02:08:15.078Z,965.70
2018-01-02T02:09:14.992Z,965.64
2018-01-02T02:10:14.913Z,965.66
2018-01-02T02:11:14.834Z,965.67
2018-01-02T02:12:14.752Z,965.63
2018-01-02T02:13:14.662Z,965.71
2018-01-02T02:14:14.590Z,965.69
2018-01-02T02:15:14.498Z,965.77
2018-01-02T02:16:14.438Z,965.54
2018-01-02T02:17:14.342Z,965.70
2018-01-02T02:18:14.256Z,965.72
2018-01-02T02:19:14.168Z,965.62
2018-01-02T02:20:14.095Z,965.68
2018-01-02T02:21:14.011Z,965.71
2018-01-02T02:22:13.926Z,965.71
2018-01-02T02:23:13.854Z,965.65
2018-01-02T02:24:13.771Z,965.76
2018-01-02T02:25:13.682Z,965.80
2018-01-02T02:26:13.605Z,965.77
2018-01-02T02:27:13.512Z,965.77
2018-01-02T02:28:13.433Z,965.80
2018-01-02T02:29:13.344Z,965.77
2018-01-02T02:30:13.273Z,965.83
2018-01-02T02:31:13.183Z,965.76
2018-01-02T02:32:13.106Z,965.84
2018-01-02T02:33:13.020Z,965.80
2018-01-02T02:34:12.950Z,965.85
2018-01-02T02:35:12.852Z,965.80
2018-01-02T02:36:12.777Z,965.77
2018-01-02T02:37:12.688Z,965.75
2018-01-02T02:38:12.620Z,965.75
2018-01-02T02:39:12.529Z,965.84
2018-01-02T02:40:12.452Z,965.79
2018-01-02T02:41:12.363Z,965.81
2018-01-02T02:42:12.293Z,965.93
2018-01-02T02:43:12.195Z,965.94
2018-01-02T02:44:12.119Z,965.88
2018-01-02T02:45:12.048Z,966.11
2018-01-02T02:46:11.977Z,966.04
2018-01-02T02:47:11.867Z,966.08
2018-01-02T02:48:11.794Z,966.15
2018-01-02T02:49:11.698Z,966.12
2018-01-02T02:50:11.629Z,966.18
2018-01-02T02:51:11.538Z,966.14
2018-01-02T02:52:11.468Z,966.13
2018-01-02T02:53:11.370Z,966.18
2018-01-02T02:54:11.297Z,966.15
2018-01-02T02:55:11.208Z,966.21
2018-01-02T02:56:11.128Z,966.25
2018-01-02T02:57:11.039Z,966.28
2018-01-02T02:58:10.968Z,966.32
2018-01-02T02:59:10.874Z,966.32
2018-01-02T03:00:10.814Z,966.39
2018-01-02T03:01:10.720Z,966.49
2018-01-02T03:02:10.639Z,966.40
2018-01-02T03:03:10.553Z,966.46
2018-01-02T03:04:10.471Z,966.45
2018-01-02T03:05:10.395Z,966.49
2018-01-02T03:06:10.305Z,966.50
2018-01-02T03:07:10.211Z,966.59
2018-01-02T03:08:10.140Z,966.51
2018-01-02T03:09:10.051Z,966.51
2018-01-02T03:10:09.975Z,966.55
2018-01-02T03:11:09.884Z,966.58
2018-01-02T03:12:09.808Z,966.60
2018-01-02T03:13:09.720Z,966.68
2018-01-02T03:14:09.647Z,966.59
2018-01-02T03:15:09.553Z,966.63
2018-01-02T03:16:09.535Z,966.66
2018-01-02T03:17:09.389Z,966.67
2018-01-02T03:18:09.317Z,966.68
2018-01-02T03:19:09.224Z,966.76
2018-01-02T03:20:09.146Z,966.65
2018-01-02T03:21:09.058Z,966.62
2018-01-02T03:22:08.996Z,966.67
2018-01-02T03:23:08.891Z,966.71
2018-01-02T03:24:08.818Z,966.72
2018-01-02T03:25:08.736Z,966.74
2018-01-02T03:26:08.664Z,966.71
2018-01-02T03:27:08.563Z,966.71
2018-01-02T03:28:08.503Z,966.74
2018-01-02T03:29:08.409Z,966.79
2018-01-02T03:30:08.331Z,966.80
2018-01-02T03:31:08.242Z,966.75
2018-01-02T03:32:08.156Z,966.77
2018-01-02T03:33:08.070Z,966.82
2018-01-02T03:34:07.996Z,966.84
2018-01-02T03:35:07.913Z,966.86
2018-01-02T03:36:07.823Z,966.85
2018-01-02T03:37:07.748Z,966.87
2018-01-02T03:38:07.680Z,966.89
2018-01-02T03:39:07.571Z,966.84
2018-01-02T03:40:07.499Z,966.95
2018-01-02T03:41:07.405Z,966.95
2018-01-02T03:42:07.340Z,966.94
2018-01-02T03:43:07.238Z,966.96
2018-01-02T03:44:07.164Z,967.01
2018-01-02T03:45:07.075Z,967.05
2018-01-02T03:46:07.001Z,967.11
2018-01-02T03:47:06.909Z,967.07
2018-01-02T03:48:06.834Z,967.11
2018-01-02T03:49:06.751Z,967.17
2018-01-02T03:50:06.686Z,967.11
2018-01-02T03:51:06.592Z,967.03
2018-01-02T03:52:06.520Z,967.15
2018-01-02T03:53:06.419Z,967.17
2018-01-02T03:54:06.343Z,967.11
2018-01-02T03:55:06.256Z,967.19
2018-01-02T03:56:06.181Z,967.16
2018-01-02T03:57:06.100Z,967.15
2018-01-02T03:58:06.009Z,967.09
2018-01-02T03:59:05.925Z,967.17
2018-01-02T04:00:05.846Z,967.15
2018-01-02T04:01:05.753Z,967.26
2018-01-02T04:02:05.678Z,967.18
2018-01-02T04:03:05.606Z,967.24
2018-01-02T04:04:05.512Z,967.18
2018-01-02T04:05:05.429Z,967.18
2018-01-02T04:06:05.347Z,967.23
2018-01-02T04:07:05.267Z,967.23
2018-01-02T04:08:05.179Z,967.27
2018-01-02T04:09:05.090Z,967.27
2018-01-02T04:10:05.030Z,967.38
2018-01-02T04:11:04.924Z,967.32
2018-01-02T04:12:04.852Z,967.28
2018-01-02T04:13:04.759Z,967.39
2018-01-02T04:14:04.691Z,967.42
2018-01-02T04:15:04.605Z,967.40
2018-01-02T04:16:04.520Z,967.43
2018-01-02T04:17:04.431Z,967.56
2018-01-02T04:18:04.362Z,967.50
2018-01-02T04:19:04.266Z,967.53
2018-01-02T04:20:04.198Z,967.61
2018-01-02T04:21:04.098Z,967.63
2018-01-02T04:22:04.024Z,967.64
2018-01-02T04:23:03.938Z,967.60
2018-01-02T04:24:03.871Z,967.66
2018-01-02T04:25:03.767Z,967.70
2018-01-02T04:26:03.696Z,967.71
2018-01-02T04:27:03.618Z,967.74
2018-01-02T04:28:03.527Z,967.70
2018-01-02T04:29:03.442Z,967.79
2018-01-02T04:30:03.369Z,967.77
2018-01-02T04:31:03.279Z,967.86
2018-01-02T04:32:03.201Z,967.85
2018-01-02T04:33:03.176Z,967.86
2018-01-02T04:34:03.038Z,967.82
2018-01-02T04:35:02.946Z,967.93
2018-01-02T04:36:02.865Z,967.87
2018-01-02T04:37:02.776Z,967.92
2018-01-02T04:38:02.701Z,967.95
2018-01-02T04:39:02.607Z,967.93
2018-01-02T04:40:02.534Z,968.03
2018-01-02T04:41:02.445Z,968.01
2018-01-02T04:42:02.380Z,968.05
2018-01-02T04:43:02.285Z,968.00
2018-01-02T04:44:02.199Z,968.03
2018-01-02T04:45:02.127Z,968.04
2018-01-02T04:46:02.043Z,968.07
2018-01-02T04:47:01.958Z,968.03
2018-01-02T04:48:01.870Z,967.98
2018-01-02T04:49:01.789Z,968.06
2018-01-02T04:50:01.716Z,968.08
2018-01-02T04:51:01.623Z,968.04
2018-01-02T04:52:01.548Z,968.05
2018-01-02T04:53:01.454Z,968.09
2018-01-02T04:54:01.376Z,968.14
2018-01-02T04:55:01.295Z,968.14
2018-01-02T04:56:01.222Z,968.11
2018-01-02T04:57:01.118Z,968.14
2018-01-02T04:58:01.050Z,968.16
2018-01-02T04:59:00.959Z,968.14
2018-01-02T05:00:00.884Z,968.21
2018-01-02T05:01:00.833Z,968.21
2018-01-02T05:02:00.716Z,968.24
2018-01-02T05:03:00.634Z,968.26
2018-01-02T05:04:00.548Z,968.25
2018-01-02T05:05:00.464Z,968.28
2018-01-02T05:06:00.393Z,968.21
2018-01-02T05:07:00.302Z,968.28
2018-01-02T05:08:00.217Z,968.34
2018-01-02T05:09:00.130Z,968.33
2018-01-02T05:10:00.057Z,968.37
2018-01-02T05:10:59.979Z,968.32
2018-01-02T05:11:59.954Z,968.31
2018-01-02T05:12:59.810Z,968.37
2018-01-02T05:13:59.769Z,968.43
2018-01-02T05:14:59.632Z,968.36
2018-01-02T05:15:59.567Z,968.40
2018-01-02T05:16:59.483Z,968.35
2018-01-02T05:17:59.408Z,968.38
2018-01-02T05:18:59.311Z,968.42
2018-01-02T05:19:59.291Z,968.37
2018-01-02T05:20:59.142Z,968.48
2018-01-02T05:21:59.077Z,968.54
2018-01-02T05:22:58.972Z,968.42
2018-01-02T05:23:58.906Z,968.52
2018-01-02T05:24:58.805Z,968.49
2018-01-02T05:25:58.820Z,968.50
2018-01-02T05:26:58.639Z,968.57
2018-01-02T05:27:58.628Z,968.52
2018-01-02T05:28:58.491Z,968.58
2018-01-02T05:29:58.434Z,968.62
2018-01-02T05:30:58.314Z,968.57
2018-01-02T05:31:58.342Z,968.60
2018-01-02T05:32:58.156Z,968.62
2018-01-02T05:33:58.068Z,968.66
2018-01-02T05:34:57.984Z,968.69
2018-01-02T05:35:57.903Z,968.78
2018-01-02T05:36:57.813Z,968.78
2018-01-02T05:37:57.742Z,968.75
2018-01-02T05:38:57.647Z,968.74
2018-01-02T05:39:57.583Z,968.80
2018-01-02T05:40:57.484Z,968.81
2018-01-02T05:41:57.408Z,968.89
2018-01-02T05:42:57.319Z,968.80
2018-01-02T05:43:57.240Z,968.88
2018-01-02T05:44:57.152Z,968.83
2018-01-02T05:45:57.109Z,968.90
2018-01-02T05:46:56.995Z,968.89
2018-01-02T05:47:56.912Z,968.90
2018-01-02T05:48:56.820Z,968.86
2018-01-02T05:49:56.748Z,968.93
2018-01-02T05:50:56.664Z,968.94
2018-01-02T05:51:56.579Z,968.94
2018-01-02T05:52:56.497Z,968.97
2018-01-02T05:53:56.414Z,969.00
2018-01-02T05:54:56.338Z,969.05
2018-01-02T05:55:56.253Z,969.04
2018-01-02T05:56:56.160Z,969.04
2018-01-02T05:57:56.080Z,969.02
2018-01-02T05:58:55.999Z,969.09
2018-01-02T05:59:55.928Z,969.08
2018-01-02T06:00:55.842Z,969.09
2018-01-02T06:01:55.753Z,969.17
2018-01-02T06:02:55.673Z,969.11
2018-01-02T06:03:55.587Z,969.16
2018-01-02T06:04:55.509Z,969.18
2018-01-02T06:05:55.423Z,969.20
2018-01-02T06:06:55.341Z,969.18
2018-01-02T06:07:55.264Z,969.22
2018-01-02T06:08:55.170Z,969.21
2018-01-02T06:09:55.090Z,969.25
2018-01-02T06:10:55.008Z,969.21
2018-01-02T06:11:54.924Z,969.29
2018-01-02T06:12:54.849Z,969.26
2018-01-02T06:13:54.761Z,969.25
2018-01-02T06:14:54.679Z,969.26
2018-01-02T06:15:54.606Z,969.32
2018-01-02T06:16:54.509Z,969.25
2018-01-02T06:17:54.446Z,969.28
2018-01-02T06:18:54.338Z,969.26
2018-01-02T06:19:54.263Z,969.32
2018-01-02T06:20:54.174Z,969.40
2018-01-02T06:21:54.095Z,969.34
2018-01-02T06:22:54.009Z,969.34
2018-01-02T06:23:53.943Z,969.38
2018-01-02T06:24:53.840Z,969.40
2018-01-02T06:25:53.770Z,969.40
2018-01-02T06:26:53.690Z,969.40
2018-01-02T06:27:53.599Z,969.43
2018-01-02T06:28:53.520Z,969.44
2018-01-02T06:29:53.439Z,969.48
2018-01-02T06:30:53.346Z,969.45
2018-01-02T06:31:53.273Z,969.51
2018-01-02T06:32:53.209Z,969.51
2018-01-02T06:33:53.109Z,969.54
2018-01-02T06:34:53.011Z,969.52
2018-01-02T06:35:52.938Z,969.68
2018-01-02T06:36:52.852Z,969.63
2018-01-02T06:37:52.789Z,969.66
2018-01-02T06:38:52.682Z,969.70
2018-01-02T06:39:52.634Z,969.67
2018-01-02T06:40:52.515Z,969.70
2018-01-02T06:41:52.491Z,969.69
2018-01-02T06:42:52.361Z,969.66
2018-01-02T06:43:52.283Z,969.74
2018-01-02T06:44:52.188Z,969.69
2018-01-02T06:45:52.115Z,969.71
2018-01-02T06:46:52.022Z,969.70
2018-01-02T06:47:51.975Z,969.78
2018-01-02T06:48:51.855Z,969.81
2018-01-02T06:49:51.790Z,969.82
2018-01-02T06:50:51.690Z,969.79
2018-01-02T06:51:51.615Z,969.82
2018-01-02T06:52:51.525Z,969.75
2018-01-02T06:53:51.470Z,969.80
2018-01-02T06:54:51.368Z,969.82
2018-01-02T06:55:51.293Z,969.88
2018-01-02T06:56:51.193Z,969.87
2018-01-02T06:57:51.128Z,969.96
2018-01-02T06:58:51.029Z,969.93
2018-01-02T06:59:50.951Z,969.94
2018-01-02T07:00:50.877Z,970.01
2018-01-02T07:01:50.789Z,970.00
2018-01-02T07:02:50.709Z,970.10
2018-01-02T07:03:50.632Z,970.09
2018-01-02T07:04:50.536Z,970.07
2018-01-02T07:05:51.465Z,970.07
2018-01-02T07:06:50.379Z,970.19
2018-01-02T07:07:50.290Z,970.14
2018-01-02T07:08:50.203Z,970.12
2018-01-02T07:09:50.126Z,970.17
2018-01-02T07:10:50.040Z,970.19
2018-01-02T07:11:49.959Z,970.25
2018-01-02T07:12:49.866Z,970.24
2018-01-02T07:13:49.802Z,970.24
2018-01-02T07:14:49.717Z,970.30
2018-01-02T07:15:49.626Z,970.25
2018-01-02T07:16:49.538Z,970.24
2018-01-02T07:17:49.471Z,970.31
2018-01-02T07:18:49.383Z,970.29
2018-01-02T07:19:49.307Z,970.29
2018-01-02T07:20:49.203Z,970.30
2018-01-02T07:21:49.136Z,970.34
2018-01-02T07:22:49.046Z,970.31
2018-01-02T07:23:48.965Z,970.34
2018-01-02T07:24:48.883Z,970.43
2018-01-02T07:25:48.806Z,970.45
2018-01-02T07:26:48.716Z,970.47
2018-01-02T07:27:48.650Z,970.43
2018-01-02T07:28:48.542Z,970.48
2018-01-02T07:29:48.471Z,970.49
2018-01-02T07:30:48.382Z,970.49
2018-01-02T07:31:48.307Z,970.49
2018-01-02T07:32:48.221Z,970.58
2018-01-02T07:33:48.150Z,970.66
2018-01-02T07:34:48.060Z,970.61
2018-01-02T07:35:47.974Z,970.65
2018-01-02T07:36:47.885Z,970.76
2018-01-02T07:37:47.810Z,970.76
2018-01-02T07:38:47.719Z,970.72
2018-01-02T07:39:47.638Z,970.76
2018-01-02T07:40:47.552Z,970.82
2018-01-02T07:41:47.490Z,970.79
2018-01-02T07:42:47.391Z,970.82
2018-01-02T07:43:47.320Z,970.85
2018-01-02T07:44:47.227Z,970.86
2018-01-02T07:45:47.150Z,970.76
2018-01-02T07:46:47.059Z,970.78
2018-01-02T07:47:46.980Z,970.82
2018-01-02T07:48:46.897Z,970.85
2018-01-02T07:49:46.828Z,970.87
2018-01-02T07:50:46.728Z,970.88
2018-01-02T07:51:46.652Z,970.87
2018-01-02T07:52:46.566Z,970.88
2018-01-02T07:53:46.491Z,970.90
2018-01-02T07:54:46.401Z,970.92
2018-01-02T07:55:46.332Z,970.91
2018-01-02T07:56:46.229Z,970.93
2018-01-02T07:57:46.158Z,970.95
2018-01-02T07:58:46.073Z,970.97
2018-01-02T07:59:45.987Z,970.95
2018-01-02T08:00:45.903Z,970.91
2018-01-02T08:01:45.824Z,970.84
2018-01-02T08:02:47.225Z,970.92
2018-01-02T08:03:46.831Z,970.89
2018-01-02T08:04:45.621Z,970.88
2018-01-02T08:05:45.520Z,970.95
2018-01-02T08:06:45.833Z,970.97
2018-01-02T08:07:45.430Z,970.93
2018-01-02T08:08:45.341Z,970.98
2018-01-02T08:09:45.623Z,971.02
2018-01-02T08:10:45.086Z,971.03
2018-01-02T08:11:45.056Z,971.08
2018-01-02T08:12:44.907Z,971.04
2018-01-02T08:13:45.391Z,971.03
2018-01-02T08:14:44.745Z,971.09
2018-01-02T08:15:44.788Z,971.13
2018-01-02T08:16:44.578Z,971.10
2018-01-02T08:17:44.587Z,971.15
2018-01-02T08:18:44.418Z,971.09
2018-01-02T08:19:44.399Z,971.13
2018-01-02T08:20:44.246Z,971.11
2018-01-02T08:21:44.170Z,971.14
2018-01-02T08:22:44.089Z,971.10
2018-01-02T08:23:44.064Z,971.13
2018-01-02T08:24:43.922Z,971.08
2018-01-02T08:25:43.948Z,971.11
2018-01-02T08:26:43.759Z,971.14
2018-01-02T08:27:43.732Z,971.12
2018-01-02T08:28:45.181Z,971.18
2018-01-02T08:29:44.232Z,971.16
2018-01-02T08:30:43.445Z,971.18
2018-01-02T08:31:43.345Z,971.18
2018-01-02T08:32:43.373Z,971.16
2018-01-02T08:33:43.178Z,971.20
2018-01-02T08:34:43.190Z,971.22
2018-01-02T08:35:43.030Z,971.18
2018-01-02T08:36:42.942Z,971.24
2018-01-02T08:37:42.844Z,971.31
2018-01-02T08:38:42.773Z,971.30
2018-01-02T08:39:42.984Z,971.38
2018-01-02T08:40:42.596Z,971.35
2018-01-02T08:41:42.525Z,971.35
2018-01-02T08:42:42.452Z,971.33
2018-01-02T08:43:42.359Z,971.40
2018-01-02T08:44:42.279Z,971.41
2018-01-02T08:45:42.187Z,971.39
2018-01-02T08:46:42.110Z,971.47
2018-01-02T08:47:42.019Z,971.45
2018-01-02T08:48:41.958Z,971.50
2018-01-02T08:49:41.863Z,971.49
2018-01-02T08:50:41.784Z,971.48
2018-01-02T08:51:41.700Z,971.52
2018-01-02T08:52:41.617Z,971.57
2018-01-02T08:53:41.542Z,971.60
2018-01-02T08:54:41.455Z,971.62
2018-01-02T08:55:41.367Z,971.65
2018-01-02T08:56:41.285Z,971.75
2018-01-02T08:57:41.208Z,971.72
2018-01-02T08:58:41.121Z,971.70
2018-01-02T08:59:41.041Z,971.70
2018-01-02T09:00:40.956Z,971.72
2018-01-02T09:01:40.890Z,971.72
2018-01-02T09:02:40.798Z,971.73
2018-01-02T09:03:40.756Z,971.77
2018-01-02T09:04:40.632Z,971.76
2018-01-02T09:05:40.553Z,971.74
2018-01-02T09:06:40.464Z,971.75
2018-01-02T09:07:40.384Z,971.79
2018-01-02T09:08:40.295Z,971.82
2018-01-02T09:09:40.221Z,971.82
2018-01-02T09:10:40.137Z,971.82
2018-01-02T09:11:40.051Z,971.89
2018-01-02T09:12:39.968Z,971.88
2018-01-02T09:13:39.940Z,971.93
2018-01-02T09:14:39.802Z,971.94
2018-01-02T09:15:39.737Z,971.96
2018-01-02T09:16:39.631Z,971.95
2018-01-02T09:17:39.668Z,971.93
2018-01-02T09:18:39.471Z,971.99
2018-01-02T09:19:39.463Z,971.99
2018-01-02T09:20:39.309Z,972.02
2018-01-02T09:21:39.252Z,972.00
2018-01-02T09:22:39.141Z,972.04
2018-01-02T09:23:39.066Z,972.07
2018-01-02T09:24:38.982Z,972.08
2018-01-02T09:25:38.899Z,972.06
2018-01-02T09:26:38.826Z,972.13
2018-01-02T09:27:38.731Z,972.17
2018-01-02T09:28:38.659Z,972.13
2018-01-02T09:29:38.574Z,972.22
2018-01-02T09:30:38.509Z,972.17
2018-01-02T09:31:38.416Z,972.23
2018-01-02T09:32:38.331Z,972.23
2018-01-02T09:33:38.247Z,972.25
2018-01-02T09:34:38.231Z,972.21
2018-01-02T09:35:38.059Z,972.27
2018-01-02T09:36:38.045Z,972.26
2018-01-02T09:37:37.908Z,972.27
2018-01-02T09:38:37.851Z,972.28
2018-01-02T09:39:37.737Z,972.27
2018-01-02T09:40:37.666Z,972.29
2018-01-02T09:41:37.586Z,972.28
2018-01-02T09:42:37.493Z,972.32
2018-01-02T09:43:37.407Z,972.31
2018-01-02T09:44:37.377Z,972.33
2018-01-02T09:45:37.247Z,972.33
2018-01-02T09:46:37.191Z,972.33
2018-01-02T09:47:37.076Z,972.31
2018-01-02T09:48:37.008Z,972.35
2018-01-02T09:49:36.920Z,972.34
2018-01-02T09:50:37.925Z,972.36
2018-01-02T09:51:36.746Z,972.40
2018-01-02T09:52:36.716Z,972.37
2018-01-02T09:53:36.580Z,972.41
2018-01-02T09:54:36.518Z,972.37
2018-01-02T09:55:36.418Z,972.36
2018-01-02T09:56:36.341Z,972.34
2018-01-02T09:57:36.252Z,972.32
2018-01-02T09:58:36.178Z,972.30
2018-01-02T09:59:36.111Z,972.33
2018-01-02T10:00:36.041Z,972.31
2018-01-02T10:01:35.923Z,972.33
2018-01-02T10:02:35.951Z,972.35
2018-01-02T10:03:35.754Z,972.38
2018-01-02T10:04:35.716Z,972.42
2018-01-02T10:05:35.593Z,972.49
2018-01-02T10:06:35.524Z,972.45
2018-01-02T10:07:35.432Z,972.43
2018-01-02T10:08:35.377Z,972.48
2018-01-02T10:09:35.266Z,972.44
2018-01-02T10:10:35.185Z,972.44
2018-01-02T10:11:35.098Z,972.48
2018-01-02T10:12:35.028Z,972.49
2018-01-02T10:13:34.932Z,972.51
2018-01-02T10:14:34.865Z,972.55
2018-01-02T10:15:34.779Z,972.47
2018-01-02T10:16:35.755Z,972.51
2018-01-02T10:17:34.614Z,972.57
2018-01-02T10:18:34.535Z,972.51
2018-01-02T10:19:34.447Z,972.50
2018-01-02T10:20:34.466Z,972.58
2018-01-02T10:21:34.276Z,972.63
2018-01-02T10:22:34.253Z,972.59
2018-01-02T10:23:34.129Z,972.62
2018-01-02T10:24:34.033Z,972.68
2018-01-02T10:25:33.948Z,972.64
2018-01-02T10:26:33.882Z,972.59
2018-01-02T10:27:33.789Z,972.65
2018-01-02T10:28:34.722Z,972.65
2018-01-02T10:29:33.614Z,972.66
2018-01-02T10:30:33.544Z,972.66
2018-01-02T10:31:33.462Z,972.68
2018-01-02T10:32:33.383Z,972.74
2018-01-02T10:33:33.285Z,972.73
2018-01-02T10:34:33.295Z,972.76
2018-01-02T10:35:33.122Z,972.73
2018-01-02T10:36:33.047Z,972.80
2018-01-02T10:37:32.953Z,972.86
2018-01-02T10:38:32.920Z,972.80
2018-01-02T10:39:32.799Z,972.76
2018-01-02T10:40:32.828Z,972.79
2018-01-02T10:41:32.626Z,972.75
2018-01-02T10:42:32.556Z,972.79
2018-01-02T10:43:32.475Z,972.83
2018-01-02T10:44:32.448Z,972.84
2018-01-02T10:45:32.305Z,972.83
2018-01-02T10:46:32.222Z,972.90
2018-01-02T10:47:32.141Z,972.88
2018-01-02T10:48:32.155Z,972.79
2018-01-02T10:49:31.972Z,972.85
2018-01-02T10:50:31.900Z,972.88
2018-01-02T10:51:31.813Z,972.78
2018-01-02T10:52:31.731Z,972.76
2018-01-02T10:53:31.653Z,972.82
2018-01-02T10:54:31.563Z,972.82
2018-01-02T10:55:31.504Z,972.79
2018-01-02T10:56:31.403Z,972.81
2018-01-02T10:57:31.308Z,972.86
2018-01-02T10:58:31.244Z,972.81
2018-01-02T10:59:31.150Z,972.81
2018-01-02T11:00:31.116Z,972.86
2018-01-02T11:01:30.984Z,972.89
2018-01-02T11:02:31.686Z,972.86
2018-01-02T11:03:30.821Z,972.86
2018-01-02T11:04:30.753Z,972.84
2018-01-02T11:05:30.722Z,972.86
2018-01-02T11:06:30.585Z,972.92
2018-01-02T11:07:30.524Z,972.84
2018-01-02T11:08:30.412Z,972.92
2018-01-02T11:09:30.443Z,972.94
2018-01-02T11:10:30.248Z,972.93
2018-01-02T11:11:30.248Z,972.93
2018-01-02T11:12:30.074Z,972.93
2018-01-02T11:13:30.048Z,972.96
2018-01-02T11:14:29.908Z,973.02
2018-01-02T11:15:29.863Z,973.01
2018-01-02T11:16:29.756Z,973.05
2018-01-02T11:17:29.772Z,973.03
2018-01-02T11:18:29.589Z,973.01
2018-01-02T11:19:29.505Z,973.04
2018-01-02T11:20:29.419Z,973.00
2018-01-02T11:21:29.397Z,972.99
2018-01-02T11:22:29.250Z,973.00
2018-01-02T11:23:29.307Z,973.04
2018-01-02T11:24:29.093Z,973.07
2018-01-02T11:25:29.113Z,973.02
2018-01-02T11:26:28.925Z,973.06
2018-01-02T11:27:28.917Z,973.08
2018-01-02T11:28:28.751Z,973.09
2018-01-02T11:29:28.734Z,973.10
2018-01-02T11:30:28.602Z,973.14
2018-01-02T11:31:28.550Z,973.13
2018-01-02T11:32:28.423Z,973.17
2018-01-02T11:33:28.454Z,973.12
2018-01-02T11:34:28.264Z,973.16
2018-01-02T11:35:28.252Z,973.11
2018-01-02T11:36:28.105Z,973.15
2018-01-02T11:37:28.032Z,973.16
2018-01-02T11:38:27.948Z,973.16
2018-01-02T11:39:27.976Z,973.17
2018-01-02T11:40:27.791Z,973.22
2018-01-02T11:41:27.694Z,973.19
2018-01-02T11:42:27.700Z,973.21
2018-01-02T11:43:27.540Z,973.21
2018-01-02T11:44:27.545Z,973.28
2018-01-02T11:45:27.356Z,973.26
2018-01-02T11:46:27.417Z,973.31
2018-01-02T11:47:27.195Z,973.28
2018-01-02T11:48:27.224Z,973.30
2018-01-02T11:49:27.033Z,973.32
2018-01-02T11:50:27.026Z,973.35
2018-01-02T11:51:26.860Z,973.38
2018-01-02T11:52:26.842Z,973.31
2018-01-02T11:53:26.694Z,973.37
2018-01-02T11:54:26.654Z,973.33
2018-01-02T11:55:26.543Z,973.29
2018-01-02T11:56:26.668Z,973.28
2018-01-02T11:57:26.374Z,973.33
2018-01-02T11:58:26.378Z,973.29
2018-01-02T11:59:26.223Z,973.33
2018-01-02T12:00:26.278Z,973.33
2018-01-02T12:01:26.041Z,973.33
2018-01-02T12:02:25.960Z,973.33
2018-01-02T12:03:25.873Z,973.41
2018-01-02T12:04:25.916Z,973.30
2018-01-02T12:05:26.273Z,973.35
2018-01-02T12:06:25.709Z,973.40
2018-01-02T12:07:25.538Z,973.37
2018-01-02T12:08:25.522Z,973.39
2018-01-02T12:09:25.383Z,973.38
2018-01-02T12:10:25.326Z,973.37
2018-01-02T12:11:25.216Z,973.40
2018-01-02T12:12:25.238Z,973.40
2018-01-02T12:13:25.054Z,973.38
2018-01-02T12:14:25.053Z,973.29
2018-01-02T12:15:24.886Z,973.32
2018-01-02T12:16:24.852Z,973.35
2018-01-02T12:17:24.725Z,973.33
2018-01-02T12:18:24.664Z,973.33
2018-01-02T12:19:24.559Z,973.34
2018-01-02T12:20:24.575Z,973.32
2018-01-02T12:21:24.393Z,973.36
2018-01-02T12:22:24.385Z,973.32
2018-01-02T12:23:24.224Z,973.28
2018-01-02T12:24:24.189Z,973.36
2018-01-02T12:25:24.061Z,973.35
2018-01-02T12:26:24.004Z,973.38
2018-01-02T12:27:23.917Z,973.35